Waynesville, Ohio
Current Conditions -  °F | °C
As of 12:11 AM on Friday 28 Nov 2014 (Local Time) from KMGY Reporting Station
Overcast Overcast  
Wind Chill: -8°   Ceiling: 3400
Heat Index: -3°   Visibility: 10mi
Dew Point: -8°   Wind: 9mph
Humidity: 69%   Direction: 290°WNW
Pressure: 30.36"   Gusts: NA
Location:  39.53°N, 84.09°W
Report Text: KMGY 280511Z AUTO 29008KT 10SM SCT022 OVC034 M03/M08 A3036 RMK AO2 T10281078
Loading
Personal Weather Stations






























Interactive Weather Map New forecast layout! Learn more

10-Day Weather Forecast

Advertisements
Track Severe Weather on mobile